KNGP/NGP METAR and TAF weather

Enter ICAO airport designator
Station Type Date Time Source
KNGP METAR 2019/04/25 15:56 UTC NOAA

KNGP 251556Z 33011KT 10SM FEW015 FEW200 25/18 A2991 RMK AO2 SLP129 T02500178 $


Station Type Date Time Source
KNGP Decoded METAR 2019/04/25 15:56 UTC NOAA

CORPUS CHRISTI NAVAL AIR STN, TX, United States (KNGP) 27-41N 097-17W
Apr 25, 2019 - 11:56 AM EDT / 2019.04.25 1556 UTC
Wind: from the NNW (330 degrees) at 13 MPH (11 KT):0
Visibility: 10 mile(s):0
Sky conditions: mostly clear
Temperature: 77.0 F (25.0 C)
Dew Point: 64.0 F (17.8 C)
Relative Humidity: 64%
Pressure (altimeter): 29.91 in. Hg (1012 hPa)
ob: KNGP 251556Z 33011KT 10SM FEW015 FEW200 25/18 A2991 RMK AO2 SLP129 T02500178
cycle: 16

Station Type Date Time Source
KNGP TAF 2019/04/25 15:58 UTC NOAA

TAF KNGP 2515/2615 31013KT 9999 FEW015FEW200 QNH2986INS
FM251900 35010KT 9999 SKC QNH2983INS
FM252100 VRB06KT 9999 SKC QNH2982INS
FM261000 35007KT 9999 SKC QNH2999INS
FM261300 04007KT 9999 SKC QNH3003INS T30/2519Z T20/2613Z FN20044

Example: see airport list